Time;durP1;ratioP1;P1;durP2;ratioP2;P2;SDS_P1;SDS_P2;PMS_P1;PMS_P2;Temp;Humidity;BMP_temperature;BMP_pressure;BME280_temperature;BME280_humidity;BME280_pressure;Samples;Min_cycle;Max_cycle;Signal;HPM_P1;HPM_P2
2022/07/28 00:02:19;;;;;;;9.25;2.65;;;;;;;15.12;58.15;101470.50;5066092;28;20497;-70
2022/07/28 00:04:47;;;;;;;4.35;1.33;;;;;;;15.20;57.63;101468.25;5068240;28;20044;-72
2022/07/28 00:07:13;;;;;;;4.55;1.40;;;;;;;15.20;57.94;101465.63;5068526;28;20045;-71
2022/07/28 00:09:40;;;;;;;4.35;1.42;;;;;;;15.14;57.61;101473.91;5072152;28;20488;-71
2022/07/28 00:12:07;;;;;;;3.08;1.20;;;;;;;14.94;58.54;101466.31;5066641;28;20461;-72
2022/07/28 00:14:33;;;;;;;3.92;1.35;;;;;;;15.01;58.35;101475.56;5065732;28;20068;-71
2022/07/28 00:17:00;;;;;;;2.67;1.15;;;;;;;14.88;58.70;101475.44;5066963;28;20044;-72
2022/07/28 00:19:26;;;;;;;3.88;1.80;;;;;;;14.78;59.03;101476.06;5076571;27;20044;-72
2022/07/28 00:21:54;;;;;;;3.55;1.17;;;;;;;14.80;59.08;101476.81;5076568;27;20102;-71
2022/07/28 00:24:22;;;;;;;6.80;1.45;;;;;;;14.86;59.10;101479.94;5068473;27;20143;-72
2022/07/28 00:26:48;;;;;;;6.45;1.50;;;;;;;14.55;59.90;101487.94;5086580;27;20048;-71
2022/07/28 00:29:14;;;;;;;7.18;1.63;;;;;;;14.51;60.88;101483.75;5072068;27;20186;-71
2022/07/28 00:31:41;;;;;;;3.88;1.50;;;;;;;14.58;60.68;101487.75;5070479;27;21813;-72
2022/07/28 00:34:07;;;;;;;4.07;1.27;;;;;;;14.60;60.76;101481.44;5073454;27;20113;-71
2022/07/28 00:36:34;;;;;;;7.00;1.27;;;;;;;14.65;60.52;101467.13;5068306;28;20465;-71
2022/07/28 00:39:01;;;;;;;5.22;1.55;;;;;;;14.63;60.30;101473.34;5063103;27;20041;-71
2022/07/28 00:41:27;;;;;;;4.28;1.70;;;;;;;14.56;60.28;101479.91;5048997;28;20488;-72
2022/07/28 00:43:54;;;;;;;4.90;1.75;;;;;;;14.43;60.86;101484.19;5063722;28;20056;-71
2022/07/28 00:46:22;;;;;;;6.60;1.40;;;;;;;14.58;60.42;101475.41;5069331;27;20044;-71
2022/07/28 00:48:50;;;;;;;4.50;1.42;;;;;;;14.48;61.18;101481.28;5083870;27;20048;-71
2022/07/28 00:51:18;;;;;;;7.15;1.70;;;;;;;14.22;62.19;101479.22;5059066;28;20048;-71
2022/07/28 00:53:45;;;;;;;4.60;1.38;;;;;;;13.98;63.60;101473.47;5065451;27;20052;-72
2022/07/28 00:56:14;;;;;;;4.30;1.50;;;;;;;14.04;63.38;101487.19;5070593;27;20117;-71
2022/07/28 00:58:41;;;;;;;5.82;1.63;;;;;;;14.10;62.77;101473.69;5067070;28;20080;-71
2022/07/28 01:01:09;;;;;;;3.53;1.90;;;;;;;14.17;62.96;101487.38;5064760;28;20110;-72
2022/07/28 01:03:38;;;;;;;3.67;1.20;;;;;;;13.91;63.34;101482.66;5066631;28;20047;-72
2022/07/28 01:06:16;;;;;;;6.40;1.48;;;;;;;13.87;64.19;101484.59;5072958;28;20094;-72
2022/07/28 01:08:55;;;;;;;4.00;1.60;;;;;;;14.00;63.42;101480.41;5056413;28;20055;-72
2022/07/28 01:11:29;;;;;;;6.25;1.60;;;;;;;14.06;62.84;101479.19;5066997;28;20033;-72
2022/07/28 01:14:02;;;;;;;4.82;1.50;;;;;;;13.98;63.07;101486.66;5072093;28;20482;-72
2022/07/28 01:16:29;;;;;;;11.27;1.88;;;;;;;14.04;63.17;101492.44;5087375;28;20044;-71
2022/07/28 01:19:04;;;;;;;3.72;1.50;;;;;;;14.18;62.33;101485.59;5083961;28;20100;-71
2022/07/28 01:21:34;;;;;;;5.68;1.73;;;;;;;14.23;62.20;101486.19;5085445;28;20398;-72
2022/07/28 01:24:12;;;;;;;4.07;1.55;;;;;;;14.32;61.74;101483.91;5087143;28;20043;-71
2022/07/28 01:26:47;;;;;;;3.80;1.83;;;;;;;14.45;60.70;101487.56;5082521;28;20079;-71
2022/07/28 01:29:28;;;;;;;5.93;1.70;;;;;;;14.54;60.39;101481.78;5070705;28;20097;-72
2022/07/28 01:32:02;;;;;;;9.23;1.58;;;;;;;14.47;60.92;101480.44;5059635;28;20059;-72
2022/07/28 01:34:33;;;;;;;3.50;1.50;;;;;;;14.36;60.68;101488.09;5075897;27;20085;-72
2022/07/28 01:37:08;;;;;;;5.18;1.27;;;;;;;14.21;61.79;101482.78;5074033;28;20512;-72
2022/07/28 01:39:37;;;;;;;4.30;1.67;;;;;;;14.18;62.06;101486.44;5071603;28;20052;-72
2022/07/28 01:42:07;;;;;;;5.18;1.40;;;;;;;13.98;63.08;101482.25;5064258;28;20045;-72
2022/07/28 01:44:37;;;;;;;5.93;1.55;;;;;;;14.00;63.04;101480.41;5050382;28;20041;-72
2022/07/28 01:47:06;;;;;;;3.30;1.50;;;;;;;14.16;61.93;101480.38;5057955;28;20044;-72
2022/07/28 01:49:35;;;;;;;5.95;1.80;;;;;;;14.14;61.19;101477.00;5065545;28;20041;-72
2022/07/28 01:52:03;;;;;;;12.23;1.60;;;;;;;14.19;61.29;101477.56;5051632;28;20047;-72
2022/07/28 01:54:31;;;;;;;2.65;1.55;;;;;;;14.13;62.26;101475.28;5063629;28;20141;-72
2022/07/28 01:57:00;;;;;;;6.13;1.92;;;;;;;13.77;63.29;101477.28;5065550;28;20557;-72
2022/07/28 01:59:29;;;;;;;5.63;2.13;;;;;;;13.93;63.86;101479.00;5064338;28;20094;-72
2022/07/28 02:01:57;;;;;;;10.18;1.80;;;;;;;14.05;63.26;101470.44;5067403;28;20150;-72
2022/07/28 02:04:26;;;;;;;4.25;1.50;;;;;;;14.18;62.25;101477.69;5065822;28;20094;-72
2022/07/28 02:06:55;;;;;;;4.38;1.45;;;;;;;14.21;61.91;101481.00;5065679;28;20446;-71
2022/07/28 02:09:23;;;;;;;3.28;1.50;;;;;;;14.27;60.60;101478.00;5059373;28;20037;-72
2022/07/28 02:11:53;;;;;;;3.38;1.52;;;;;;;14.29;60.92;101476.16;5061595;28;20130;-72
2022/07/28 02:14:22;;;;;;;3.17;1.55;;;;;;;14.29;60.66;101476.16;5064918;28;20072;-72
2022/07/28 02:16:54;;;;;;;8.10;2.35;;;;;;;14.31;61.11;101476.06;5064929;28;20056;-71
2022/07/28 02:19:21;;;;;;;6.00;1.60;;;;;;;14.36;60.96;101477.53;5067009;28;20040;-71
2022/07/28 02:21:51;;;;;;;6.95;2.13;;;;;;;14.36;61.41;101477.53;5053021;28;20045;-71
2022/07/28 02:24:21;;;;;;;3.22;1.50;;;;;;;14.35;61.31;101467.06;5059749;28;20082;-72
2022/07/28 02:26:53;;;;;;;4.40;1.63;;;;;;;14.36;61.54;101471.41;5058465;28;20049;-72
2022/07/28 02:29:23;;;;;;;7.30;1.90;;;;;;;14.35;61.62;101475.84;5068038;27;20041;-72
2022/07/28 02:31:54;;;;;;;4.50;1.63;;;;;;;14.30;61.53;101480.47;5065732;27;20048;-72
2022/07/28 02:34:23;;;;;;;4.55;2.08;;;;;;;14.28;61.31;101481.50;5081235;27;20070;-71
2022/07/28 02:36:56;;;;;;;30.88;2.10;;;;;;;14.24;60.93;101485.25;5058165;28;20435;-71
2022/07/28 02:39:25;;;;;;;6.20;2.00;;;;;;;14.21;60.59;101482.78;5066688;28;20048;-71
2022/07/28 02:42:00;;;;;;;3.38;1.48;;;;;;;14.17;60.28;101487.38;5056291;28;20041;-73
2022/07/28 02:44:35;;;;;;;5.28;1.80;;;;;;;14.19;60.42;101474.94;5059247;27;20047;-73
2022/07/28 02:47:06;;;;;;;5.75;1.88;;;;;;;14.14;60.52;101482.28;5083291;27;20048;-73
2022/07/28 02:49:34;;;;;;;5.70;1.63;;;;;;;14.00;60.47;101485.66;5057593;27;20114;-73
2022/07/28 02:52:05;;;;;;;4.90;1.95;;;;;;;13.85;60.93;101480.34;5064621;28;20049;-73
2022/07/28 02:54:32;;;;;;;7.03;1.92;;;;;;;13.84;61.07;101491.81;5063680;28;20040;-73
2022/07/28 02:57:00;;;;;;;3.75;1.80;;;;;;;13.81;60.66;101492.00;5064418;28;20048;-73
2022/07/28 02:59:28;;;;;;;4.72;1.83;;;;;;;13.71;60.73;101488.97;5065029;28;20043;-73
2022/07/28 03:01:55;;;;;;;4.57;1.60;;;;;;;13.67;60.44;101497.16;5063637;28;20106;-73
2022/07/28 03:07:04;;;;;;;4.50;1.85;;;;;;;13.43;61.95;101494.84;5050807;28;20550;-73
2022/07/28 03:09:31;;;;;;;9.25;1.90;;;;;;;13.48;62.17;101507.78;5048210;28;20049;-72
2022/07/28 03:11:57;;;;;;;5.30;1.60;;;;;;;13.57;62.24;101508.16;5057160;27;20110;-73
2022/07/28 03:14:24;;;;;;;7.20;1.90;;;;;;;13.53;61.84;101503.13;5077451;27;20110;-73
2022/07/28 03:16:50;;;;;;;4.82;1.70;;;;;;;13.54;61.70;101513.59;5065280;28;20053;-73
2022/07/28 03:19:16;;;;;;;6.57;2.08;;;;;;;13.27;62.68;101509.72;5068268;27;20044;-73
2022/07/28 03:21:46;;;;;;;3.33;1.70;;;;;;;13.38;64.01;101507.38;5065333;28;20048;-73
2022/07/28 03:24:14;;;;;;;5.10;1.70;;;;;;;13.38;63.83;101510.03;5070420;27;20063;-73
2022/07/28 03:26:46;;;;;;;5.25;1.52;;;;;;;13.51;62.66;101511.13;5069362;28;20064;-73
2022/07/28 03:29:13;;;;;;;4.80;1.60;;;;;;;13.60;62.38;101520.31;5081524;27;20048;-73
2022/07/28 03:31:43;;;;;;;4.07;1.70;;;;;;;13.64;62.10;101522.72;5069090;27;20448;-73
2022/07/28 03:34:10;;;;;;;3.35;1.50;;;;;;;13.62;61.51;101521.09;5074547;27;20048;-72
2022/07/28 03:36:42;;;;;;;6.38;1.95;;;;;;;13.58;61.95;101515.13;5066975;28;20048;-72
2022/07/28 03:39:10;;;;;;;4.22;1.77;;;;;;;13.60;62.01;101518.53;5069356;28;20044;-72
2022/07/28 03:41:41;;;;;;;4.28;1.50;;;;;;;13.62;62.51;101521.94;5063123;27;20229;-72
2022/07/28 03:44:10;;;;;;;4.85;1.60;;;;;;;13.65;62.91;101519.16;5059750;28;20099;-73
2022/07/28 03:46:42;;;;;;;6.47;1.63;;;;;;;13.67;63.10;101516.44;5060700;28;20044;-73
2022/07/28 03:49:09;;;;;;;6.50;2.10;;;;;;;13.74;63.26;101520.47;5068224;28;20044;-72
2022/07/28 03:51:35;;;;;;;9.63;2.42;;;;;;;13.67;63.87;101529.63;5084261;27;20055;-73
2022/07/28 03:54:01;;;;;;;7.63;2.20;;;;;;;13.66;63.92;101527.91;5085467;27;20040;-73
2022/07/28 03:56:28;;;;;;;8.85;2.70;;;;;;;13.64;63.29;101522.72;5084957;27;20076;-72
2022/07/28 03:58:55;;;;;;;6.57;2.55;;;;;;;13.60;64.36;101528.22;5085530;27;20101;-72
2022/07/28 04:01:22;;;;;;;12.43;2.38;;;;;;;13.71;64.32;101530.31;5066982;28;20052;-73
2022/07/28 04:03:48;;;;;;;5.82;2.20;;;;;;;13.74;64.29;101516.97;5066437;28;20052;-73
2022/07/28 04:06:15;;;;;;;8.02;2.83;;;;;;;13.76;64.37;101521.22;5076229;27;20454;-73
2022/07/28 04:08:42;;;;;;;10.07;2.60;;;;;;;13.79;64.86;101514.94;5077239;27;20111;-73
2022/07/28 04:11:08;;;;;;;6.78;2.28;;;;;;;13.82;64.42;101518.25;5056028;28;20071;-73
2022/07/28 04:13:35;;;;;;;9.07;2.45;;;;;;;13.84;64.49;101526.09;5049552;28;20049;-73
2022/07/28 04:16:04;;;;;;;7.50;2.40;;;;;;;13.91;64.04;101522.19;5069500;28;20148;-72
2022/07/28 04:18:30;;;;;;;7.00;2.33;;;;;;;13.86;64.24;101519.81;5068332;28;20048;-72
2022/07/28 04:20:56;;;;;;;5.80;2.35;;;;;;;13.85;64.28;101522.53;5072732;27;20044;-73
2022/07/28 04:23:23;;;;;;;7.07;2.20;;;;;;;13.96;64.02;101526.31;5054929;28;20155;-73
2022/07/28 04:25:49;;;;;;;3.63;1.90;;;;;;;14.03;64.08;101516.28;5058553;28;20461;-74
2022/07/28 04:28:16;;;;;;;8.65;2.00;;;;;;;14.03;63.90;101525.06;5087017;27;20073;-73
2022/07/28 04:30:42;;;;;;;4.75;1.90;;;;;;;13.83;64.67;101529.66;5075295;27;20048;-73
2022/07/28 04:33:10;;;;;;;7.55;2.13;;;;;;;14.00;65.20;101521.72;5076361;27;20454;-74
2022/07/28 04:35:36;;;;;;;7.88;2.38;;;;;;;14.14;64.66;101520.06;5076180;27;20037;-73
2022/07/28 04:38:03;;;;;;;4.80;2.38;;;;;;;14.06;65.22;101527.50;5067420;28;20052;-73
2022/07/28 04:40:29;;;;;;;7.65;2.13;;;;;;;14.00;65.91;101524.34;5047034;28;20049;-73
2022/07/28 04:42:55;;;;;;;6.18;2.10;;;;;;;13.99;66.21;101530.56;5057887;28;20110;-73
2022/07/28 04:45:23;;;;;;;9.27;2.65;;;;;;;14.26;66.07;101522.97;5066968;28;20064;-73
2022/07/28 04:47:50;;;;;;;8.65;2.20;;;;;;;14.11;66.91;101524.63;5066391;28;20079;-74
2022/07/28 04:50:20;;;;;;;5.28;2.22;;;;;;;14.32;66.15;101523.47;5067747;28;20430;-73
2022/07/28 04:53:02;;;;;;;12.57;2.50;;;;;;;14.61;65.71;101524.53;5052860;28;20056;-73
2022/07/28 04:55:29;;;;;;;5.72;2.10;;;;;;;14.94;64.93;101516.47;5069262;28;20036;-74
2022/07/28 04:57:55;;;;;;;8.73;2.83;;;;;;;15.22;64.14;101526.31;5046143;28;20103;-74
2022/07/28 05:00:21;;;;;;;6.25;2.85;;;;;;;15.45;63.93;101524.00;5050439;28;20454;-74
2022/07/28 05:02:48;;;;;;;8.13;2.75;;;;;;;15.59;63.48;101524.03;5067510;28;20677;-74
2022/07/28 05:05:14;;;;;;;6.78;2.33;;;;;;;15.72;63.10;101524.16;5065774;28;20044;-74
2022/07/28 05:07:43;;;;;;;6.85;2.60;;;;;;;16.01;63.19;101519.72;5066767;28;20055;-74
2022/07/28 05:10:11;;;;;;;9.50;2.67;;;;;;;16.14;62.14;101520.69;5062976;27;20090;-74
2022/07/28 05:12:37;;;;;;;4.75;2.03;;;;;;;16.12;62.11;101527.84;5055127;28;20052;-74
2022/07/28 05:15:05;;;;;;;9.57;2.30;;;;;;;16.17;62.08;101515.19;5068904;27;20045;-74
2022/07/28 05:17:31;;;;;;;7.35;2.58;;;;;;;16.52;60.44;101526.19;5078772;27;20523;-74
2022/07/28 05:19:58;;;;;;;4.32;2.08;;;;;;;16.46;60.13;101530.09;5068707;28;20106;-74
2022/07/28 05:22:24;;;;;;;3.90;1.90;;;;;;;16.58;59.96;101530.28;5065874;28;20561;-74
2022/07/28 05:24:52;;;;;;;8.98;2.65;;;;;;;16.65;60.17;101526.28;5072634;27;20466;-74
2022/07/28 05:27:18;;;;;;;3.85;1.70;;;;;;;16.63;59.58;101534.31;5074939;27;20052;-74
2022/07/28 05:29:44;;;;;;;10.73;2.10;;;;;;;16.52;59.92;101540.28;5077331;27;20044;-74
2022/07/28 05:32:11;;;;;;;4.60;1.63;;;;;;;16.78;59.37;101530.69;5068996;27;20048;-74
2022/07/28 05:34:38;;;;;;;7.78;2.25;;;;;;;16.96;58.62;101539.25;5075540;27;20052;-74
2022/07/28 05:37:04;;;;;;;4.15;1.75;;;;;;;17.13;58.81;101544.28;5077087;27;20044;-73
2022/07/28 05:39:31;;;;;;;6.15;1.98;;;;;;;17.09;57.75;101547.22;5076005;27;20388;-73
2022/07/28 05:41:59;;;;;;;6.72;1.98;;;;;;;17.60;58.27;101546.41;5062002;28;20053;-73
2022/07/28 05:44:26;;;;;;;5.07;1.60;;;;;;;17.69;57.37;101551.09;5065723;28;20093;-73
2022/07/28 05:46:52;;;;;;;10.40;2.15;;;;;;;17.80;54.83;101553.03;5073414;27;20099;-73
2022/07/28 05:49:20;;;;;;;5.95;1.55;;;;;;;18.13;55.25;101553.34;5065948;27;20040;-73
2022/07/28 05:51:47;;;;;;;4.57;1.50;;;;;;;18.43;55.21;101556.47;5086457;27;20068;-73
2022/07/28 05:54:13;;;;;;;6.00;1.73;;;;;;;18.67;54.20;101567.16;5106104;27;20052;-74
2022/07/28 05:56:39;;;;;;;3.85;1.63;;;;;;;18.46;54.52;101564.22;5066262;28;20055;-74
2022/07/28 05:59:09;;;;;;;4.68;1.30;;;;;;;18.62;54.16;101565.81;5072783;27;20060;-73
2022/07/28 06:01:36;;;;;;;5.20;1.35;;;;;;;18.78;53.97;101567.22;5072611;27;20067;-73
2022/07/28 06:04:03;;;;;;;7.40;1.83;;;;;;;18.70;53.95;101569.59;5083276;27;20054;-73
2022/07/28 06:06:29;;;;;;;7.55;1.77;;;;;;;18.91;53.64;101564.53;5066359;28;20052;-73
2022/07/28 06:08:55;;;;;;;6.97;1.50;;;;;;;18.98;53.43;101559.59;5062703;28;20474;-73
2022/07/28 06:11:22;;;;;;;6.05;1.60;;;;;;;19.07;52.96;101561.59;5059859;28;20102;-68
2022/07/28 06:13:48;;;;;;;5.05;1.92;;;;;;;18.99;52.34;101561.31;5065299;28;20038;-69
2022/07/28 06:16:16;;;;;;;5.35;1.75;;;;;;;18.97;52.25;101564.06;5082228;28;20445;-69
2022/07/28 06:18:43;;;;;;;6.50;1.83;;;;;;;18.89;53.26;101567.28;5067284;27;20527;-69
2022/07/28 06:21:09;;;;;;;4.38;1.50;;;;;;;18.54;52.12;101573.47;5069214;27;20131;-71
2022/07/28 06:23:36;;;;;;;5.43;1.65;;;;;;;18.66;54.16;101564.63;5074893;27;20491;-70
2022/07/28 06:26:02;;;;;;;4.47;1.60;;;;;;;18.82;53.60;101573.16;5070010;27;20048;-70
2022/07/28 06:28:28;;;;;;;4.75;1.33;;;;;;;19.17;52.49;101574.09;5067811;28;20041;-70
2022/07/28 06:30:55;;;;;;;4.35;1.80;;;;;;;19.02;53.33;101566.41;5065474;28;20247;-70
2022/07/28 06:33:22;;;;;;;6.40;1.50;;;;;;;18.99;51.63;101577.25;5065411;28;20094;-70
2022/07/28 06:35:49;;;;;;;4.40;1.27;;;;;;;18.89;52.02;101577.06;5073333;27;20128;-70
2022/07/28 06:38:15;;;;;;;4.47;1.50;;;;;;;19.12;51.63;101568.25;5073415;27;20466;-69
2022/07/28 06:40:43;;;;;;;8.15;2.13;;;;;;;19.12;51.12;101568.25;5065820;28;20045;-69
2022/07/28 06:43:09;;;;;;;4.03;1.60;;;;;;;19.06;49.11;101563.41;5065519;28;20055;-69
2022/07/28 06:45:35;;;;;;;5.07;1.27;;;;;;;19.22;50.21;101571.06;5057534;27;20045;-69
2022/07/28 06:48:02;;;;;;;7.93;1.58;;;;;;;19.20;48.46;101571.19;5055760;28;20048;-70
2022/07/28 06:50:29;;;;;;;12.18;1.60;;;;;;;19.38;50.19;101561.84;5076250;27;20090;-70
2022/07/28 06:52:57;;;;;;;3.30;1.48;;;;;;;19.50;49.67;101557.44;5063972;28;20045;-70
2022/07/28 06:55:24;;;;;;;5.10;1.20;;;;;;;19.36;49.11;101561.09;5073826;27;20411;-69
2022/07/28 06:57:50;;;;;;;10.32;1.83;;;;;;;19.87;48.12;101560.78;5085543;27;20083;-69
2022/07/28 07:00:17;;;;;;;6.55;1.70;;;;;;;19.60;47.82;101570.88;5072076;27;20493;-69
2022/07/28 07:02:44;;;;;;;7.22;1.65;;;;;;;20.07;49.91;101557.41;5080948;27;20044;-69
2022/07/28 07:05:11;;;;;;;10.40;1.70;;;;;;;20.36;47.06;101558.63;5073041;27;20044;-69
2022/07/28 07:07:39;;;;;;;3.63;1.42;;;;;;;21.01;45.97;101554.28;5063059;28;20094;-69
2022/07/28 07:10:06;;;;;;;3.47;1.25;;;;;;;20.75;48.07;101557.25;5066718;27;20090;-69
2022/07/28 07:12:33;;;;;;;5.32;1.27;;;;;;;20.83;47.34;101564.63;5065640;28;20454;-69
2022/07/28 07:15:00;;;;;;;3.30;1.40;;;;;;;21.14;45.54;101553.16;5074185;27;20481;-69
2022/07/28 07:17:26;;;;;;;4.75;1.40;;;;;;;21.44;44.77;101560.41;5083902;27;20044;-69
2022/07/28 07:19:53;;;;;;;6.88;1.38;;;;;;;22.28;45.00;101560.22;5076606;27;20098;-69
2022/07/28 07:22:19;;;;;;;4.65;1.60;;;;;;;22.21;45.21;101558.22;5063863;28;20049;-69
2022/07/28 07:24:47;;;;;;;5.43;1.27;;;;;;;22.08;43.89;101553.13;5073229;27;20052;-69
2022/07/28 07:27:13;;;;;;;7.15;1.50;;;;;;;22.55;44.26;101556.09;5085935;27;20483;-69
2022/07/28 07:29:39;;;;;;;10.18;1.67;;;;;;;22.41;42.68;101561.81;5074932;27;20070;-69
2022/07/28 07:32:06;;;;;;;5.35;1.20;;;;;;;22.27;44.10;101561.22;5080967;28;20048;-69
2022/07/28 07:34:33;;;;;;;6.15;1.67;;;;;;;22.63;43.71;101569.63;5084324;28;20094;-69
2022/07/28 07:36:59;;;;;;;6.28;1.60;;;;;;;22.27;42.62;101566.56;5079358;27;20056;-69
2022/07/28 07:39:26;;;;;;;5.15;1.60;;;;;;;22.74;42.55;101557.03;5063474;27;20049;-69
2022/07/28 07:41:53;;;;;;;6.05;1.98;;;;;;;23.15;41.27;101555.94;5048309;28;20462;-69
2022/07/28 07:44:19;;;;;;;6.07;1.55;;;;;;;23.12;44.20;101552.69;5064576;28;20044;-69
2022/07/28 07:46:46;;;;;;;3.65;1.20;;;;;;;23.82;39.62;101555.06;5065398;28;20053;-69
2022/07/28 07:49:12;;;;;;;4.55;1.60;;;;;;;24.09;35.78;101557.75;5070622;27;20090;-69
2022/07/28 07:51:38;;;;;;;5.10;1.38;;;;;;;22.52;39.57;101561.72;5070364;27;20089;-69
2022/07/28 07:54:05;;;;;;;4.95;1.35;;;;;;;22.23;42.22;101561.63;5112571;27;20121;-69
2022/07/28 07:56:31;;;;;;;8.80;1.70;;;;;;;22.63;41.44;101553.59;5064953;28;20447;-69
2022/07/28 07:58:59;;;;;;;5.60;1.50;;;;;;;23.59;42.76;101551.84;5068345;27;20457;-69
2022/07/28 08:01:25;;;;;;;5.55;1.30;;;;;;;23.12;38.88;101552.69;5072586;27;20403;-69
2022/07/28 08:03:52;;;;;;;8.63;1.48;;;;;;;23.54;40.73;101548.75;5069343;27;20094;-69
2022/07/28 08:06:18;;;;;;;5.75;1.50;;;;;;;23.56;42.66;101543.25;5067501;27;20048;-69
2022/07/28 08:08:44;;;;;;;7.63;1.33;;;;;;;23.52;38.49;101537.34;5062773;28;20041;-69
2022/07/28 08:11:11;;;;;;;6.50;1.60;;;;;;;23.84;38.19;101545.03;5045619;28;20053;-69
2022/07/28 08:13:37;;;;;;;6.45;1.50;;;;;;;23.50;38.53;101539.31;5047067;28;20102;-69
2022/07/28 08:16:06;;;;;;;5.93;1.95;;;;;;;23.35;40.29;101546.09;5056814;28;20380;-69
2022/07/28 08:18:32;;;;;;;3.90;1.40;;;;;;;23.56;38.60;101536.09;5058877;28;20041;-68
2022/07/28 08:20:58;;;;;;;3.28;1.27;;;;;;;23.68;40.60;101534.94;5065807;28;20048;-68
2022/07/28 08:23:25;;;;;;;4.88;1.35;;;;;;;24.45;40.46;101540.03;5068354;28;20037;-68
2022/07/28 08:25:51;;;;;;;9.25;1.40;;;;;;;25.47;37.69;101535.16;5083440;27;20044;-69
2022/07/28 08:28:17;;;;;;;4.72;1.30;;;;;;;25.54;37.24;101536.25;5086764;27;20040;-68
2022/07/28 08:30:44;;;;;;;4.25;1.38;;;;;;;25.54;37.39;101537.09;5073922;27;20040;-68
2022/07/28 08:33:11;;;;;;;5.68;1.33;;;;;;;26.10;37.70;101536.59;5074637;27;20581;-68
2022/07/28 08:35:38;;;;;;;9.63;2.08;;;;;;;26.52;35.53;101535.81;5066565;28;20381;-68
2022/07/28 08:38:05;;;;;;;7.45;1.50;;;;;;;27.21;34.43;101531.91;5087736;28;20040;-68
2022/07/28 08:40:32;;;;;;;5.57;1.60;;;;;;;27.39;33.31;101529.88;5074983;28;20048;-68
2022/07/28 08:43:03;;;;;;;3.72;1.27;;;;;;;27.54;34.37;101523.69;5067346;28;20093;-69
2022/07/28 08:45:31;;;;;;;4.50;1.35;;;;;;;27.14;32.92;101523.66;5067242;28;20118;-68
2022/07/28 08:47:59;;;;;;;3.92;1.20;;;;;;;27.48;31.48;101521.69;5081263;28;20481;-69
2022/07/28 08:50:29;;;;;;;7.55;1.60;;;;;;;27.18;32.25;101532.25;5045874;28;20045;-69
2022/07/28 08:52:56;;;;;;;6.53;1.45;;;;;;;27.28;32.14;101516.75;5048838;28;20480;-68
2022/07/28 08:55:24;;;;;;;6.07;1.42;;;;;;;27.77;32.40;101517.56;5074124;27;20049;-68
2022/07/28 08:57:53;;;;;;;5.80;1.58;;;;;;;27.07;33.21;101518.13;5060655;28;20265;-68
2022/07/28 09:00:21;;;;;;;4.40;1.20;;;;;;;27.13;32.88;101529.22;5067588;28;20123;-68
2022/07/28 09:02:49;;;;;;;4.55;1.40;;;;;;;27.81;33.28;101522.47;5088317;28;20407;-68
2022/07/28 09:05:15;;;;;;;4.68;1.20;;;;;;;28.11;29.23;101506.56;5067910;28;20657;-68
2022/07/28 09:07:47;;;;;;;8.18;1.60;;;;;;;27.94;32.92;101511.97;5066432;28;20037;-68
2022/07/28 09:10:13;;;;;;;3.78;1.20;;;;;;;27.99;31.32;101509.59;5067513;28;20392;-68
2022/07/28 09:12:39;;;;;;;4.00;1.33;;;;;;;27.46;30.92;101517.44;5077320;28;20056;-68
2022/07/28 09:15:09;;;;;;;6.75;1.30;;;;;;;28.08;31.36;101515.00;5086209;28;20044;-68
2022/07/28 09:17:36;;;;;;;7.38;1.13;;;;;;;28.15;33.42;101518.69;5078791;28;20036;-68
2022/07/28 09:20:03;;;;;;;5.32;1.10;;;;;;;28.23;32.09;101515.94;5055324;28;20053;-68
2022/07/28 09:22:32;;;;;;;4.05;1.20;;;;;;;27.81;33.83;101516.22;5065339;28;20519;-68
2022/07/28 09:25:01;;;;;;;5.07;1.10;;;;;;;28.03;32.07;101524.41;5067665;28;20094;-69
2022/07/28 09:27:27;;;;;;;4.80;1.17;;;;;;;28.44;32.23;101522.41;5066820;28;20047;-69
2022/07/28 09:29:59;;;;;;;7.07;1.30;;;;;;;28.99;31.78;101514.16;5063470;28;20431;-69
2022/07/28 09:32:26;;;;;;;5.97;1.25;;;;;;;29.38;28.76;101518.59;5063698;28;20458;-68
2022/07/28 09:34:53;;;;;;;3.63;1.23;;;;;;;29.23;32.76;101518.50;5067195;28;20040;-68
2022/07/28 09:37:20;;;;;;;9.40;1.33;;;;;;;28.84;31.01;101526.75;5065900;28;20098;-69
2022/07/28 09:39:48;;;;;;;4.35;1.30;;;;;;;29.03;29.86;101522.75;5063836;28;20048;-68
2022/07/28 09:42:17;;;;;;;5.70;1.55;;;;;;;28.27;29.61;101520.78;5067001;28;20109;-69
2022/07/28 09:44:44;;;;;;;6.32;1.67;;;;;;;27.52;28.82;101523.03;5065846;28;20052;-68
2022/07/28 09:47:26;;;;;;;5.28;1.40;;;;;;;27.50;35.77;101526.88;5065338;28;20048;-68
2022/07/28 09:49:53;;;;;;;7.35;1.88;;;;;;;28.08;32.10;101520.38;5066024;28;20045;-68
2022/07/28 09:52:28;;;;;;;2.33;0.90;;;;;;;28.73;32.37;101521.78;5064531;28;20416;-68
2022/07/28 09:55:00;;;;;;;5.82;1.17;;;;;;;29.24;30.93;101517.50;5065984;28;20521;-68
2022/07/28 09:57:28;;;;;;;;;;;;;;;28.64;28.41;101512.00;5067000;28;20051;-68
2022/07/28 09:59:55;;;;;;;5.13;1.40;;;;;;;29.17;31.54;101510.31;5070781;27;19993;-69
2022/07/28 10:02:25;;;;;;;5.07;1.23;;;;;;;29.55;31.56;101505.78;5084156;27;20047;-68
2022/07/28 10:04:53;;;;;;;4.43;1.42;;;;;;;28.61;30.05;101503.41;5085365;27;20101;-68
2022/07/28 10:07:19;;;;;;;5.47;1.60;;;;;;;28.60;28.62;101502.59;5070552;27;20115;-68
2022/07/28 10:09:56;;;;;;;5.60;1.58;;;;;;;28.53;30.90;101509.72;5059581;28;20052;-69
2022/07/28 10:12:25;;;;;;;2.25;0.95;;;;;;;28.67;29.36;101503.56;5064072;28;20416;-68
2022/07/28 10:14:55;;;;;;;4.57;1.35;;;;;;;28.52;33.62;101505.34;5064434;28;20048;-69
2022/07/28 10:17:23;;;;;;;3.78;1.33;;;;;;;28.06;32.88;101497.09;5065310;28;20485;-69
2022/07/28 10:19:50;;;;;;;5.70;1.45;;;;;;;27.79;33.04;101494.81;5066874;27;20079;-68
2022/07/28 10:22:18;;;;;;;5.07;1.60;;;;;;;28.16;33.97;101493.41;5045202;28;20040;-68
2022/07/28 10:24:48;;;;;;;9.75;1.75;;;;;;;28.41;31.07;101494.97;5045804;28;20052;-68
2022/07/28 10:27:16;;;;;;;4.38;1.40;;;;;;;28.17;30.92;101495.91;5081444;27;20054;-68
2022/07/28 10:29:44;;;;;;;6.70;1.35;;;;;;;28.04;31.10;101493.75;5083991;27;20050;-68
2022/07/28 10:32:12;;;;;;;10.80;1.45;;;;;;;28.61;30.72;101495.31;5085432;27;20109;-68
2022/07/28 10:34:46;;;;;;;3.83;1.27;;;;;;;29.13;29.03;101479.28;5073636;27;20076;-68
2022/07/28 10:37:18;;;;;;;6.63;1.40;;;;;;;29.05;29.25;101479.38;5082343;27;20052;-68
2022/07/28 10:39:51;;;;;;;6.43;1.65;;;;;;;29.29;31.19;101476.47;5067873;27;20048;-68
2022/07/28 10:42:20;;;;;;;2.80;1.33;;;;;;;29.30;29.58;101475.47;5065266;28;20566;-68
2022/07/28 10:44:46;;;;;;;7.43;1.70;;;;;;;28.25;29.63;101479.69;5065106;28;20052;-68
2022/07/28 10:47:15;;;;;;;6.50;1.30;;;;;;;27.48;30.45;101466.97;5065377;28;20101;-68
2022/07/28 10:49:42;;;;;;;6.43;1.52;;;;;;;27.81;30.93;101471.25;5057950;28;20122;-68
2022/07/28 10:52:09;;;;;;;4.18;1.23;;;;;;;27.15;29.70;101482.28;5045825;28;20118;-68
2022/07/28 10:54:42;;;;;;;4.63;1.52;;;;;;;26.31;31.61;101482.44;5065193;28;20067;-68
2022/07/28 10:57:12;;;;;;;5.15;1.48;;;;;;;25.88;30.70;101477.19;5055409;28;20049;-68
2022/07/28 10:59:58;;;;;;;4.57;1.50;;;;;;;26.28;33.29;101468.47;5048328;28;20064;-68
2022/07/28 11:02:50;;;;;;;8.50;1.65;;;;;;;27.15;28.92;101460.75;5064707;28;20131;-68
2022/07/28 11:05:27;;;;;;;7.10;1.40;;;;;;;27.62;30.85;101455.47;5061017;28;20032;-68
2022/07/28 11:07:54;;;;;;;5.55;1.40;;;;;;;27.94;30.05;101458.03;5069320;27;20044;-68
2022/07/28 11:10:22;;;;;;;5.85;1.45;;;;;;;28.58;29.20;101456.06;5065251;28;20066;-68
2022/07/28 11:12:50;;;;;;;11.90;1.77;;;;;;;29.04;31.00;101453.38;5057148;28;20082;-68
2022/07/28 11:15:28;;;;;;;4.47;1.33;;;;;;;29.63;30.05;101457.91;5069579;27;20101;-68
2022/07/28 11:18:00;;;;;;;3.28;1.30;;;;;;;29.88;30.68;101456.59;5064119;28;20052;-68
2022/07/28 11:21:04;;;;;;;4.00;1.30;;;;;;;28.95;28.02;101455.31;5076709;28;20044;-68
2022/07/28 11:23:42;;;;;;;3.22;1.30;;;;;;;28.78;28.63;101451.91;5084734;28;20085;-68
2022/07/28 11:26:29;;;;;;;9.90;1.60;;;;;;;28.85;29.19;101458.25;5074072;28;20051;-68
2022/07/28 11:29:15;;;;;;;5.97;1.40;;;;;;;28.89;31.48;101453.34;5058688;28;20041;-68
2022/07/28 11:32:00;;;;;;;4.28;1.17;;;;;;;28.97;26.37;101446.00;5054788;28;20056;-68
2022/07/28 11:35:18;;;;;;;5.78;1.17;;;;;;;29.28;27.14;101436.97;5064343;28;20558;-68